• Join FlightAware (Why Join?)
  • Login
  • US Flag 
Rudolph Flight #1: Arrived! 
05:15PM EST


 

Airport Tracker/Info


-or-


 

Live Flight TrackerFlight Track Log ✈ LOF3416 ✈ 16-Jul-2013 ✈ KORD - KSGF

Flight Track Log - Related Links

Times and Time Zones

All times are in EDT time to prevent confusion due to time zone crossing. See the LOF3416 flight status page for this flight to view local times or setup timezone preferences in your user account.

Time Position Orientation Groundspeed Altitude Reporting Facility
EDT Latitude Longitude Course Direction KTS MPH feet Rate Location/Type
05:57PM 41.9000 -87.9000 194° South 185 213 3,100  Level Chicago TRACON
05:58PM 41.8108 -87.9428 200° South 230 265 6,000 1,860 Climbing Chicago Center
05:59PM 41.7464 -87.9822 205° Southwest 254 292 8,000 1,860 Climbing Chicago Center
06:00PM 41.6742 -88.0236 203° Southwest 282 325 9,900 1,740 Climbing Chicago Center
06:01PM 41.6000 -88.0658 203° Southwest 290 334 11,700 1,680 Climbing Chicago Center
06:02PM 41.3917 -88.1639 194° South  Level FlightAware Approximate
06:02PM 41.5086 -88.1206 204° Southwest 305 351 13,500  Level Chicago Center
06:03PM 41.4297 -88.1661 203° Southwest 320 368 14,900 1,200 Climbing Chicago Center
06:04PM 41.3458 -88.2072 200° South 329 379 16,100 1,140 Climbing Chicago Center
06:05PM 41.2575 -88.2461 198° South 337 388 17,300 1,140 Climbing Chicago Center
06:06PM 41.1497 -88.2953 199° South 344 396 18,500 1,140 Climbing Chicago Center
06:07PM 41.0569 -88.3375 199° South 353 406 19,700 1,080 Climbing Chicago Center
06:09PM 40.9625 -88.3794 199° South 360 414 20,800 1,140 Climbing Chicago Center
06:10PM 40.8653 -88.4233 199° South 368 423 22,100 1,380 Climbing Chicago Center
06:11PM 40.7689 -88.4669 199° South 370 426 23,700 1,500 Climbing Chicago Center
06:12PM 40.6761 -88.5642 218° Southwest 365 420 25,200 1,200 Climbing Chicago Center
06:13PM 40.6072 -88.6686 229° Southwest 377 434 26,200 960 Climbing Chicago Center
06:14PM 40.5367 -88.7739 229° Southwest 384 442 27,200 840 Climbing Chicago Center
06:15PM 40.4556 -88.8950 229° Southwest 393 452 28,000 360 Climbing Chicago Center
06:16PM 40.3811 -89.0081 229° Southwest 405 466 28,000  Level Chicago Center
06:17PM 40.3000 -89.1269 228° Southwest 426 490 28,000  Level Chicago Center
06:18PM 40.2178 -89.2511 229° Southwest 445 512 28,000  Level Chicago Center
06:19PM 40.1333 -89.3761 229° Southwest 454 522 28,100 600 Climbing Chicago Center
06:20PM 40.0661 -89.4742 228° Southwest 451 519 29,200 1,260 Climbing Kansas City Center
06:21PM 39.9869 -89.5900 228° Southwest 435 501 30,500 1,140 Climbing Kansas City Center
06:22PM 39.9106 -89.7031 229° Southwest 421 484 31,600 720 Climbing Kansas City Center
06:23PM 39.8172 -89.8397 228° Southwest 419 482 32,000 180 Climbing Kansas City Center
06:24PM 39.7350 -89.9575 228° Southwest 431 496 32,000  Level Kansas City Center
06:25PM 39.6489 -90.0853 229° Southwest 446 513 32,000  Level Kansas City Center
06:26PM 39.5661 -90.2067 229° Southwest 450 518 32,000  Level Kansas City Center
06:27PM 39.4819 -90.3303 229° Southwest 457 526 32,000  Level Kansas City Center
06:28PM 39.3981 -90.4497 228° Southwest 455 524 32,000  Level Kansas City Center
06:29PM 39.3144 -90.5689 228° Southwest 451 519 32,000  Level Kansas City Center
06:30PM 39.2161 -90.7094 228° Southwest 447 514 32,000  Level Kansas City Center
06:31PM 39.1361 -90.8244 228° Southwest 439 505 32,000  Level Kansas City Center
06:32PM 39.0528 -90.9403 227° Southwest 443 510 32,000  Level Kansas City Center
06:33PM 38.9706 -91.0581 228° Southwest 445 512 32,000  Level Kansas City Center
06:34PM 38.8881 -91.1747 228° Southwest 445 512 32,000  Level Kansas City Center
06:35PM 38.7869 -91.3142 227° Southwest 447 514 32,000  Level Kansas City Center
06:36PM 38.7081 -91.4358 230° Southwest 447 514 32,000 -480 Level Kansas City Center
06:37PM 38.6442 -91.5589 236° Southwest 451 519 31,100 -1,260 Descending Kansas City Center
06:38PM 38.5572 -91.7208 236° Southwest 458 527 29,400 -1,500 Descending Kansas City Center
06:39PM 38.4875 -91.8525 236° Southwest 451 519 28,100 -1,260 Descending Kansas City Center
06:40PM 38.4156 -91.9833 235° Southwest 450 518 26,800 -1,320 Descending Kansas City Center
06:41PM 38.3406 -92.1194 235° Southwest 465 535 25,400 -1,320 Descending Kansas City Center
06:42PM 38.2731 -92.2547 238° Southwest 459 528 24,100 -1,560 Descending Kansas City Center
06:43PM 38.2075 -92.3833 237° Southwest 444 511 22,200 -2,220 Descending Kansas City Center
06:44PM 38.1397 -92.5222 238° Southwest 432 497 19,600 -2,280 Descending Kansas City Center
06:46PM 38.0756 -92.6475 237° Southwest 426 490 17,500 -1,800 Descending Kansas City Center
06:47PM 38.0086 -92.7750 236° Southwest 404 465 16,000 -960 Descending Kansas City Center
06:48PM 37.9256 -92.8558 218° Southwest 383 441 15,600 -1,020 Descending Kansas City Center
06:49PM 37.8381 -92.9289 213° Southwest 380 437 13,900 -1,860 Descending Kansas City Center
06:50PM 37.7519 -93.0031 214° Southwest 377 434 11,900 -1,740 Descending Kansas City Center
06:51PM 37.6553 -93.0842 214° Southwest 358 412 10,300 -1,440 Descending Kansas City Center
06:52PM 37.5903 -93.1403 214° Southwest 312 359 9,000 -1,140 Descending Kansas City Center
06:53PM 37.5283 -93.1958 215° Southwest 282 325 8,000 -540 Descending Kansas City Center
06:54PM 37.4603 -93.2347 204° Southwest 269 310 8,000  Level Kansas City Center
06:55PM 37.3900 -93.2753 205° Southwest 273 314 8,000 -720 Level Kansas City Center
06:56PM 37.3217 -93.3142 204° Southwest 272 313 6,600 -1,320 Descending Kansas City Center
06:57PM 37.2506 -93.3497 202° Southwest 245 282 5,400 -1,620 Descending Kansas City Center
06:58PM 37.1994 -93.3536 183° South 204 235 3,300 -1,500 Descending Kansas City Center
06:59PM 37.1936 -93.3939 260° West 186 214 2,300 -960 Descending Kansas City Center
07:00PM 37.2314 -93.3914 North 159 183 1,400 -900 Descending Kansas City Center
07:02PM 37.2333 -93.3833 North  Level FlightAware Approximate